sensor_id;sensor_type;location;lat;lon;timestamp;pressure;altitude;pressure_sealevel;temperature;humidity
18795;BME280;29610;49.022;12.114;2023-06-14T00:00:15;97313.91;;;16.23;100.00
18795;BME280;29610;49.022;12.114;2023-06-14T00:02:45;97313.03;;;16.19;100.00
18795;BME280;29610;49.022;12.114;2023-06-14T00:05:13;97310.16;;;16.11;100.00
18795;BME280;29610;49.022;12.114;2023-06-14T00:07:44;97301.47;;;16.29;100.00
18795;BME280;29610;49.022;12.114;2023-06-14T00:10:16;97314.00;;;16.07;100.00
18795;BME280;29610;49.022;12.114;2023-06-14T00:12:45;97310.44;;;16.03;100.00
18795;BME280;29610;49.022;12.114;2023-06-14T00:15:14;97304.50;;;16.01;100.00
18795;BME280;29610;49.022;12.114;2023-06-14T00:17:42;97309.44;;;15.92;100.00
18795;BME280;29610;49.022;12.114;2023-06-14T00:20:15;97312.56;;;15.90;100.00
18795;BME280;29610;49.022;12.114;2023-06-14T00:22:45;97314.13;;;15.91;100.00
18795;BME280;29610;49.022;12.114;2023-06-14T00:25:15;97314.78;;;15.85;100.00
18795;BME280;29610;49.022;12.114;2023-06-14T00:27:56;97305.00;;;15.84;100.00
18795;BME280;29610;49.022;12.114;2023-06-14T00:30:25;97303.03;;;15.84;100.00
18795;BME280;29610;49.022;12.114;2023-06-14T00:32:59;97306.09;;;16.02;100.00
18795;BME280;29610;49.022;12.114;2023-06-14T00:35:27;97306.28;;;15.90;100.00
18795;BME280;29610;49.022;12.114;2023-06-14T00:37:58;97308.34;;;15.96;100.00
18795;BME280;29610;49.022;12.114;2023-06-14T00:40:27;97303.78;;;16.04;100.00
18795;BME280;29610;49.022;12.114;2023-06-14T00:42:56;97304.75;;;15.92;100.00
18795;BME280;29610;49.022;12.114;2023-06-14T00:45:27;97304.88;;;15.99;100.00
18795;BME280;29610;49.022;12.114;2023-06-14T00:47:56;97308.50;;;16.03;100.00
18795;BME280;29610;49.022;12.114;2023-06-14T00:50:25;97302.13;;;15.77;100.00
18795;BME280;29610;49.022;12.114;2023-06-14T00:52:54;97311.16;;;15.77;100.00
18795;BME280;29610;49.022;12.114;2023-06-14T00:55:25;97298.75;;;15.64;100.00
18795;BME280;29610;49.022;12.114;2023-06-14T00:57:55;97308.56;;;15.65;100.00
18795;BME280;29610;49.022;12.114;2023-06-14T01:00:25;97302.06;;;15.35;100.00
18795;BME280;29610;49.022;12.114;2023-06-14T01:02:56;97301.31;;;15.35;100.00
18795;BME280;29610;49.022;12.114;2023-06-14T01:05:25;97301.91;;;15.44;100.00
18795;BME280;29610;49.022;12.114;2023-06-14T01:08:14;97302.22;;;15.61;100.00
18795;BME280;29610;49.022;12.114;2023-06-14T01:11:03;97304.41;;;15.52;100.00
18795;BME280;29610;49.022;12.114;2023-06-14T01:13:37;97303.38;;;15.22;100.00
18795;BME280;29610;49.022;12.114;2023-06-14T01:16:08;97308.84;;;15.03;100.00
18795;BME280;29610;49.022;12.114;2023-06-14T01:18:37;97298.34;;;15.05;100.00
18795;BME280;29610;49.022;12.114;2023-06-14T01:21:06;97310.34;;;15.01;100.00
18795;BME280;29610;49.022;12.114;2023-06-14T01:23:37;97304.69;;;15.09;100.00
18795;BME280;29610;49.022;12.114;2023-06-14T01:26:06;97298.84;;;15.11;100.00
18795;BME280;29610;49.022;12.114;2023-06-14T01:28:35;97303.09;;;15.27;100.00
18795;BME280;29610;49.022;12.114;2023-06-14T01:31:06;97300.13;;;14.98;100.00
18795;BME280;29610;49.022;12.114;2023-06-14T01:33:36;97309.47;;;14.97;100.00
18795;BME280;29610;49.022;12.114;2023-06-14T01:36:07;97304.66;;;14.90;100.00
18795;BME280;29610;49.022;12.114;2023-06-14T01:38:40;97299.13;;;15.06;100.00
18795;BME280;29610;49.022;12.114;2023-06-14T01:41:11;97300.34;;;14.89;100.00
18795;BME280;29610;49.022;12.114;2023-06-14T01:43:41;97308.75;;;14.81;100.00
18795;BME280;29610;49.022;12.114;2023-06-14T01:46:11;97310.59;;;14.77;100.00
18795;BME280;29610;49.022;12.114;2023-06-14T01:48:42;97309.69;;;14.88;100.00
18795;BME280;29610;49.022;12.114;2023-06-14T01:51:11;97307.31;;;14.87;100.00
18795;BME280;29610;49.022;12.114;2023-06-14T01:53:41;97294.22;;;14.96;100.00
18795;BME280;29610;49.022;12.114;2023-06-14T01:56:10;97300.13;;;14.98;100.00
18795;BME280;29610;49.022;12.114;2023-06-14T01:58:39;97307.78;;;14.73;100.00
18795;BME280;29610;49.022;12.114;2023-06-14T02:01:08;97307.75;;;14.54;100.00
18795;BME280;29610;49.022;12.114;2023-06-14T02:03:39;97303.72;;;14.48;100.00
18795;BME280;29610;49.022;12.114;2023-06-14T02:06:07;97302.53;;;14.49;100.00
18795;BME280;29610;49.022;12.114;2023-06-14T02:08:40;97306.88;;;14.50;100.00
18795;BME280;29610;49.022;12.114;2023-06-14T02:11:10;97304.06;;;14.46;100.00
18795;BME280;29610;49.022;12.114;2023-06-14T02:13:38;97305.41;;;14.37;100.00
18795;BME280;29610;49.022;12.114;2023-06-14T02:16:07;97304.59;;;14.36;100.00
18795;BME280;29610;49.022;12.114;2023-06-14T02:18:37;97303.75;;;14.32;100.00
18795;BME280;29610;49.022;12.114;2023-06-14T02:21:06;97304.09;;;14.31;100.00
18795;BME280;29610;49.022;12.114;2023-06-14T02:23:35;97305.22;;;14.30;100.00
18795;BME280;29610;49.022;12.114;2023-06-14T02:26:06;97307.94;;;14.30;100.00
18795;BME280;29610;49.022;12.114;2023-06-14T02:28:35;97313.88;;;14.32;100.00
18795;BME280;29610;49.022;12.114;2023-06-14T02:31:04;97311.84;;;14.29;100.00
18795;BME280;29610;49.022;12.114;2023-06-14T02:33:33;97315.66;;;14.24;100.00
18795;BME280;29610;49.022;12.114;2023-06-14T02:36:03;97313.34;;;14.26;100.00
18795;BME280;29610;49.022;12.114;2023-06-14T02:38:34;97318.16;;;13.86;100.00
18795;BME280;29610;49.022;12.114;2023-06-14T02:41:03;97317.78;;;13.72;100.00
18795;BME280;29610;49.022;12.114;2023-06-14T02:43:35;97321.22;;;13.69;100.00
18795;BME280;29610;49.022;12.114;2023-06-14T02:46:06;97316.44;;;13.66;100.00
18795;BME280;29610;49.022;12.114;2023-06-14T02:48:35;97317.00;;;13.72;100.00
18795;BME280;29610;49.022;12.114;2023-06-14T02:51:04;97317.81;;;13.88;100.00
18795;BME280;29610;49.022;12.114;2023-06-14T02:53:34;97313.06;;;14.00;100.00
18795;BME280;29610;49.022;12.114;2023-06-14T02:56:03;97321.06;;;13.78;100.00
18795;BME280;29610;49.022;12.114;2023-06-14T02:58:34;97318.31;;;13.78;100.00
18795;BME280;29610;49.022;12.114;2023-06-14T03:01:02;97312.69;;;13.86;100.00
18795;BME280;29610;49.022;12.114;2023-06-14T03:03:33;97314.97;;;13.84;100.00
18795;BME280;29610;49.022;12.114;2023-06-14T03:06:02;97314.19;;;13.84;100.00
18795;BME280;29610;49.022;12.114;2023-06-14T03:08:35;97318.69;;;13.92;100.00
18795;BME280;29610;49.022;12.114;2023-06-14T03:11:12;97318.88;;;14.14;100.00
18795;BME280;29610;49.022;12.114;2023-06-14T03:13:42;97313.94;;;14.20;100.00
18795;BME280;29610;49.022;12.114;2023-06-14T03:16:12;97315.44;;;14.17;100.00
18795;BME280;29610;49.022;12.114;2023-06-14T03:18:41;97315.34;;;14.14;100.00
18795;BME280;29610;49.022;12.114;2023-06-14T03:21:10;97324.25;;;14.11;100.00
18795;BME280;29610;49.022;12.114;2023-06-14T03:23:42;97325.41;;;14.10;100.00
18795;BME280;29610;49.022;12.114;2023-06-14T03:26:12;97334.56;;;13.86;100.00
18795;BME280;29610;49.022;12.114;2023-06-14T03:28:44;97330.66;;;13.87;100.00
18795;BME280;29610;49.022;12.114;2023-06-14T03:31:13;97335.25;;;13.83;100.00
18795;BME280;29610;49.022;12.114;2023-06-14T03:33:43;97338.84;;;13.87;100.00
18795;BME280;29610;49.022;12.114;2023-06-14T03:36:13;97337.28;;;13.86;100.00
18795;BME280;29610;49.022;12.114;2023-06-14T03:38:42;97331.19;;;13.77;100.00
18795;BME280;29610;49.022;12.114;2023-06-14T03:41:12;97337.78;;;13.76;100.00
18795;BME280;29610;49.022;12.114;2023-06-14T03:43:42;97341.13;;;13.70;100.00
18795;BME280;29610;49.022;12.114;2023-06-14T03:46:11;97347.13;;;13.75;100.00
18795;BME280;29610;49.022;12.114;2023-06-14T03:48:41;97345.47;;;13.86;100.00
18795;BME280;29610;49.022;12.114;2023-06-14T03:51:10;97354.19;;;14.07;100.00
18795;BME280;29610;49.022;12.114;2023-06-14T03:53:39;97343.47;;;13.99;100.00
18795;BME280;29610;49.022;12.114;2023-06-14T03:56:28;97352.31;;;13.80;100.00
18795;BME280;29610;49.022;12.114;2023-06-14T03:58:58;97352.63;;;13.91;100.00
18795;BME280;29610;49.022;12.114;2023-06-14T04:01:29;97350.16;;;14.01;100.00
18795;BME280;29610;49.022;12.114;2023-06-14T04:04:00;97358.34;;;14.17;100.00
18795;BME280;29610;49.022;12.114;2023-06-14T04:06:29;97361.84;;;14.29;100.00
18795;BME280;29610;49.022;12.114;2023-06-14T04:09:00;97363.69;;;14.41;100.00
18795;BME280;29610;49.022;12.114;2023-06-14T04:11:35;97362.78;;;14.52;100.00
18795;BME280;29610;49.022;12.114;2023-06-14T04:14:06;97363.47;;;14.65;100.00
18795;BME280;29610;49.022;12.114;2023-06-14T04:16:34;97370.44;;;14.78;100.00
18795;BME280;29610;49.022;12.114;2023-06-14T04:19:03;97365.31;;;14.77;100.00
18795;BME280;29610;49.022;12.114;2023-06-14T04:21:33;97367.16;;;14.88;100.00
18795;BME280;29610;49.022;12.114;2023-06-14T04:24:04;97372.31;;;14.74;100.00
18795;BME280;29610;49.022;12.114;2023-06-14T04:26:34;97370.25;;;14.87;100.00
18795;BME280;29610;49.022;12.114;2023-06-14T04:29:05;97372.28;;;14.90;100.00
18795;BME280;29610;49.022;12.114;2023-06-14T04:31:40;97383.16;;;15.05;100.00
18795;BME280;29610;49.022;12.114;2023-06-14T04:34:10;97374.50;;;15.03;100.00
18795;BME280;29610;49.022;12.114;2023-06-14T04:36:51;97377.56;;;14.98;100.00
18795;BME280;29610;49.022;12.114;2023-06-14T04:39:24;97386.81;;;14.94;100.00
18795;BME280;29610;49.022;12.114;2023-06-14T04:41:56;97381.91;;;14.84;100.00
18795;BME280;29610;49.022;12.114;2023-06-14T04:44:29;97381.97;;;15.22;100.00
18795;BME280;29610;49.022;12.114;2023-06-14T04:47:03;97380.09;;;15.26;100.00
18795;BME280;29610;49.022;12.114;2023-06-14T04:49:34;97373.38;;;15.58;100.00
18795;BME280;29610;49.022;12.114;2023-06-14T04:52:05;97371.47;;;16.00;100.00
18795;BME280;29610;49.022;12.114;2023-06-14T04:54:37;97374.59;;;16.21;100.00
18795;BME280;29610;49.022;12.114;2023-06-14T04:57:09;97378.34;;;16.36;100.00
18795;BME280;29610;49.022;12.114;2023-06-14T04:59:44;97376.00;;;16.57;100.00
18795;BME280;29610;49.022;12.114;2023-06-14T05:02:13;97379.63;;;16.64;100.00
18795;BME280;29610;49.022;12.114;2023-06-14T05:04:43;97378.78;;;16.60;100.00
18795;BME280;29610;49.022;12.114;2023-06-14T05:07:12;97379.34;;;16.47;100.00
18795;BME280;29610;49.022;12.114;2023-06-14T05:09:42;97384.53;;;16.52;100.00
18795;BME280;29610;49.022;12.114;2023-06-14T05:12:12;97383.94;;;16.20;100.00
18795;BME280;29610;49.022;12.114;2023-06-14T05:14:46;97384.44;;;16.45;100.00
18795;BME280;29610;49.022;12.114;2023-06-14T05:17:18;97387.84;;;16.61;100.00
18795;BME280;29610;49.022;12.114;2023-06-14T05:19:47;97383.16;;;16.87;100.00
18795;BME280;29610;49.022;12.114;2023-06-14T05:22:16;97383.19;;;16.65;100.00
18795;BME280;29610;49.022;12.114;2023-06-14T05:24:45;97384.25;;;16.83;100.00
18795;BME280;29610;49.022;12.114;2023-06-14T05:27:16;97380.66;;;17.05;100.00
18795;BME280;29610;49.022;12.114;2023-06-14T05:29:46;97391.41;;;17.17;100.00
18795;BME280;29610;49.022;12.114;2023-06-14T05:32:15;97399.44;;;17.29;100.00
18795;BME280;29610;49.022;12.114;2023-06-14T05:34:44;97394.66;;;17.48;100.00
18795;BME280;29610;49.022;12.114;2023-06-14T05:37:13;97392.44;;;17.05;100.00
18795;BME280;29610;49.022;12.114;2023-06-14T05:39:42;97402.50;;;17.24;100.00
18795;BME280;29610;49.022;12.114;2023-06-14T05:42:11;97399.56;;;17.39;100.00
18795;BME280;29610;49.022;12.114;2023-06-14T05:44:42;97400.88;;;17.45;100.00
18795;BME280;29610;49.022;12.114;2023-06-14T05:47:13;97395.63;;;17.37;100.00
18795;BME280;29610;49.022;12.114;2023-06-14T05:49:42;97395.94;;;17.32;100.00
18795;BME280;29610;49.022;12.114;2023-06-14T05:52:10;97400.00;;;17.41;100.00
18795;BME280;29610;49.022;12.114;2023-06-14T05:54:40;97402.31;;;17.66;100.00
18795;BME280;29610;49.022;12.114;2023-06-14T05:57:10;97402.44;;;17.76;100.00
18795;BME280;29610;49.022;12.114;2023-06-14T05:59:39;97406.84;;;17.84;100.00
18795;BME280;29610;49.022;12.114;2023-06-14T06:02:08;97407.38;;;17.93;100.00
18795;BME280;29610;49.022;12.114;2023-06-14T06:04:38;97407.22;;;17.83;100.00
18795;BME280;29610;49.022;12.114;2023-06-14T06:07:07;97408.19;;;17.97;100.00
18795;BME280;29610;49.022;12.114;2023-06-14T06:09:36;97405.19;;;18.13;100.00
18795;BME280;29610;49.022;12.114;2023-06-14T06:12:07;97408.66;;;18.06;100.00
18795;BME280;29610;49.022;12.114;2023-06-14T06:14:36;97414.72;;;17.86;100.00
18795;BME280;29610;49.022;12.114;2023-06-14T06:17:05;97409.31;;;17.93;100.00
18795;BME280;29610;49.022;12.114;2023-06-14T06:19:34;97412.25;;;18.10;100.00
18795;BME280;29610;49.022;12.114;2023-06-14T06:22:04;97417.09;;;18.20;100.00
18795;BME280;29610;49.022;12.114;2023-06-14T06:24:34;97412.72;;;18.52;100.00
18795;BME280;29610;49.022;12.114;2023-06-14T06:27:03;97416.22;;;18.49;100.00
18795;BME280;29610;49.022;12.114;2023-06-14T06:29:32;97417.03;;;18.53;100.00
18795;BME280;29610;49.022;12.114;2023-06-14T06:32:01;97429.41;;;18.73;100.00
18795;BME280;29610;49.022;12.114;2023-06-14T06:34:29;97429.31;;;19.10;100.00
18795;BME280;29610;49.022;12.114;2023-06-14T06:36:58;97428.19;;;19.18;100.00
18795;BME280;29610;49.022;12.114;2023-06-14T06:39:28;97432.69;;;18.89;100.00
18795;BME280;29610;49.022;12.114;2023-06-14T06:41:57;97436.22;;;18.86;100.00
18795;BME280;29610;49.022;12.114;2023-06-14T06:44:33;97435.19;;;19.09;100.00
18795;BME280;29610;49.022;12.114;2023-06-14T06:47:02;97435.09;;;19.49;100.00
18795;BME280;29610;49.022;12.114;2023-06-14T06:49:31;97437.84;;;19.49;100.00
18795;BME280;29610;49.022;12.114;2023-06-14T06:52:01;97442.81;;;19.26;100.00
18795;BME280;29610;49.022;12.114;2023-06-14T06:54:31;97441.91;;;19.69;100.00
18795;BME280;29610;49.022;12.114;2023-06-14T06:57:00;97434.53;;;19.94;100.00
18795;BME280;29610;49.022;12.114;2023-06-14T06:59:29;97438.09;;;19.94;100.00
18795;BME280;29610;49.022;12.114;2023-06-14T07:01:58;97438.16;;;20.08;100.00
18795;BME280;29610;49.022;12.114;2023-06-14T07:04:28;97442.56;;;20.30;100.00
18795;BME280;29610;49.022;12.114;2023-06-14T07:06:56;97444.22;;;20.67;100.00
18795;BME280;29610;49.022;12.114;2023-06-14T07:09:25;97448.09;;;20.41;100.00
18795;BME280;29610;49.022;12.114;2023-06-14T07:11:55;97453.28;;;20.53;100.00
18795;BME280;29610;49.022;12.114;2023-06-14T07:14:24;97447.41;;;20.97;100.00
18795;BME280;29610;49.022;12.114;2023-06-14T07:16:52;97446.59;;;20.72;100.00
18795;BME280;29610;49.022;12.114;2023-06-14T07:19:21;97443.88;;;21.10;100.00
18795;BME280;29610;49.022;12.114;2023-06-14T07:21:50;97442.66;;;21.32;100.00
18795;BME280;29610;49.022;12.114;2023-06-14T07:24:20;97452.91;;;21.32;100.00
18795;BME280;29610;49.022;12.114;2023-06-14T07:26:49;97452.16;;;21.14;100.00
18795;BME280;29610;49.022;12.114;2023-06-14T07:29:20;97448.94;;;21.54;100.00
18795;BME280;29610;49.022;12.114;2023-06-14T07:31:49;97451.31;;;21.52;100.00
18795;BME280;29610;49.022;12.114;2023-06-14T07:34:18;97457.16;;;21.75;100.00
18795;BME280;29610;49.022;12.114;2023-06-14T07:36:46;97457.97;;;21.72;100.00
18795;BME280;29610;49.022;12.114;2023-06-14T07:39:15;97454.91;;;21.28;100.00
18795;BME280;29610;49.022;12.114;2023-06-14T07:41:44;97456.50;;;21.18;100.00
18795;BME280;29610;49.022;12.114;2023-06-14T07:44:13;97462.38;;;21.45;100.00
18795;BME280;29610;49.022;12.114;2023-06-14T07:46:50;97462.72;;;21.86;100.00
18795;BME280;29610;49.022;12.114;2023-06-14T07:49:19;97466.66;;;22.74;100.00
18795;BME280;29610;49.022;12.114;2023-06-14T07:51:47;97463.91;;;22.71;88.81
18795;BME280;29610;49.022;12.114;2023-06-14T07:54:17;97457.53;;;22.77;83.69
18795;BME280;29610;49.022;12.114;2023-06-14T07:56:46;97454.63;;;22.95;87.78
18795;BME280;29610;49.022;12.114;2023-06-14T07:59:15;97465.69;;;22.95;83.02
18795;BME280;29610;49.022;12.114;2023-06-14T08:01:43;97460.91;;;22.37;100.00
18795;BME280;29610;49.022;12.114;2023-06-14T08:04:15;97461.09;;;23.29;94.00
18795;BME280;29610;49.022;12.114;2023-06-14T08:06:44;97459.56;;;22.66;89.79
18795;BME280;29610;49.022;12.114;2023-06-14T08:09:13;97472.19;;;21.92;100.00
18795;BME280;29610;49.022;12.114;2023-06-14T08:11:42;97467.72;;;22.15;100.00
18795;BME280;29610;49.022;12.114;2023-06-14T08:14:12;97469.03;;;22.72;88.44
18795;BME280;29610;49.022;12.114;2023-06-14T08:16:41;97466.41;;;23.91;78.46
18795;BME280;29610;49.022;12.114;2023-06-14T08:19:10;97463.31;;;25.06;68.90
18795;BME280;29610;49.022;12.114;2023-06-14T08:21:40;97459.28;;;25.99;62.90
18795;BME280;29610;49.022;12.114;2023-06-14T08:24:10;97456.91;;;26.56;59.87
18795;BME280;29610;49.022;12.114;2023-06-14T08:26:40;97460.94;;;27.23;54.72
18795;BME280;29610;49.022;12.114;2023-06-14T08:29:09;97457.81;;;27.37;52.89
18795;BME280;29610;49.022;12.114;2023-06-14T08:31:38;97462.91;;;28.15;51.42
18795;BME280;29610;49.022;12.114;2023-06-14T08:34:07;97454.88;;;28.71;47.75
18795;BME280;29610;49.022;12.114;2023-06-14T08:36:36;97456.34;;;29.26;44.83
18795;BME280;29610;49.022;12.114;2023-06-14T08:39:06;97455.75;;;29.43;45.00
18795;BME280;29610;49.022;12.114;2023-06-14T08:41:36;97453.84;;;29.40;45.30
18795;BME280;29610;49.022;12.114;2023-06-14T08:44:06;97456.22;;;29.29;44.93
18795;BME280;29610;49.022;12.114;2023-06-14T08:46:36;97455.88;;;29.86;44.46
18795;BME280;29610;49.022;12.114;2023-06-14T08:49:06;97456.94;;;30.45;42.45
18795;BME280;29610;49.022;12.114;2023-06-14T08:51:36;97457.31;;;30.77;41.09
18795;BME280;29610;49.022;12.114;2023-06-14T08:54:07;97458.94;;;30.66;40.08
18795;BME280;29610;49.022;12.114;2023-06-14T08:56:38;97457.72;;;30.67;40.93
18795;BME280;29610;49.022;12.114;2023-06-14T08:59:09;97458.25;;;30.31;42.43
18795;BME280;29610;49.022;12.114;2023-06-14T09:01:39;97467.16;;;29.95;42.79
18795;BME280;29610;49.022;12.114;2023-06-14T09:04:22;97467.31;;;29.08;42.89
18795;BME280;29610;49.022;12.114;2023-06-14T09:06:51;97463.50;;;29.27;45.26
18795;BME280;29610;49.022;12.114;2023-06-14T09:09:24;97463.25;;;29.46;43.51
18795;BME280;29610;49.022;12.114;2023-06-14T09:11:53;97470.66;;;28.78;44.65
18795;BME280;29610;49.022;12.114;2023-06-14T09:14:24;97479.03;;;28.78;45.09
18795;BME280;29610;49.022;12.114;2023-06-14T09:16:54;97481.94;;;27.60;44.10
18795;BME280;29610;49.022;12.114;2023-06-14T09:19:24;97482.31;;;27.30;48.00
18795;BME280;29610;49.022;12.114;2023-06-14T09:21:53;97491.63;;;27.71;51.42
18795;BME280;29610;49.022;12.114;2023-06-14T09:24:25;97489.94;;;27.74;48.85
18795;BME280;29610;49.022;12.114;2023-06-14T09:26:54;97486.66;;;27.63;47.77
18795;BME280;29610;49.022;12.114;2023-06-14T09:29:24;97489.00;;;27.64;47.23
18795;BME280;29610;49.022;12.114;2023-06-14T09:31:55;97489.19;;;27.57;51.05
18795;BME280;29610;49.022;12.114;2023-06-14T09:34:24;97483.56;;;27.29;48.29
18795;BME280;29610;49.022;12.114;2023-06-14T09:36:54;97486.22;;;27.64;51.61
18795;BME280;29610;49.022;12.114;2023-06-14T09:39:22;97479.69;;;27.55;47.81
18795;BME280;29610;49.022;12.114;2023-06-14T09:41:53;97481.66;;;26.15;48.58
18795;BME280;29610;49.022;12.114;2023-06-14T09:44:25;97485.88;;;25.80;48.46
18795;BME280;29610;49.022;12.114;2023-06-14T09:46:57;97476.84;;;26.55;50.08
18795;BME280;29610;49.022;12.114;2023-06-14T09:49:27;97490.56;;;27.17;49.61
18795;BME280;29610;49.022;12.114;2023-06-14T09:52:00;97477.69;;;27.39;47.05
18795;BME280;29610;49.022;12.114;2023-06-14T09:54:30;97480.06;;;26.53;45.19
18795;BME280;29610;49.022;12.114;2023-06-14T09:57:04;97482.38;;;26.39;47.51
18795;BME280;29610;49.022;12.114;2023-06-14T09:59:35;97481.63;;;26.54;49.98
18795;BME280;29610;49.022;12.114;2023-06-14T10:02:19;97479.34;;;25.67;49.35
18795;BME280;29610;49.022;12.114;2023-06-14T10:05:00;97489.88;;;25.79;50.08
18795;BME280;29610;49.022;12.114;2023-06-14T10:07:41;97476.63;;;26.46;55.85
18795;BME280;29610;49.022;12.114;2023-06-14T10:10:11;97480.66;;;27.32;51.21
18795;BME280;29610;49.022;12.114;2023-06-14T10:12:42;97481.78;;;27.67;48.00
18795;BME280;29610;49.022;12.114;2023-06-14T10:15:18;97478.69;;;28.22;49.78
18795;BME280;29610;49.022;12.114;2023-06-14T10:17:56;97482.59;;;28.24;50.80
18795;BME280;29610;49.022;12.114;2023-06-14T10:20:34;97474.59;;;29.18;43.65
18795;BME280;29610;49.022;12.114;2023-06-14T10:23:11;97478.78;;;29.60;45.42
18795;BME280;29610;49.022;12.114;2023-06-14T10:25:42;97473.75;;;29.55;44.02
18795;BME280;29610;49.022;12.114;2023-06-14T10:28:19;97476.38;;;29.24;44.83
18795;BME280;29610;49.022;12.114;2023-06-14T10:31:06;97475.25;;;29.34;46.63
18795;BME280;29610;49.022;12.114;2023-06-14T10:33:39;97476.06;;;29.10;47.60
18795;BME280;29610;49.022;12.114;2023-06-14T10:36:26;97481.06;;;29.27;49.98
18795;BME280;29610;49.022;12.114;2023-06-14T10:39:01;97475.19;;;28.46;43.97
18795;BME280;29610;49.022;12.114;2023-06-14T10:41:36;97478.81;;;28.43;47.06
18795;BME280;29610;49.022;12.114;2023-06-14T10:44:45;97476.69;;;28.63;47.08
18795;BME280;29610;49.022;12.114;2023-06-14T10:47:24;97473.22;;;28.72;49.62
18795;BME280;29610;49.022;12.114;2023-06-14T10:49:55;97479.06;;;29.28;47.96
18795;BME280;29610;49.022;12.114;2023-06-14T10:52:27;97465.69;;;29.69;46.86
18795;BME280;29610;49.022;12.114;2023-06-14T10:55:08;97467.94;;;30.18;43.15
18795;BME280;29610;49.022;12.114;2023-06-14T10:57:42;97456.53;;;31.65;39.89
18795;BME280;29610;49.022;12.114;2023-06-14T11:00:23;97460.88;;;33.49;38.48
18795;BME280;29610;49.022;12.114;2023-06-14T11:03:43;97451.66;;;35.06;35.76
18795;BME280;29610;49.022;12.114;2023-06-14T11:06:15;97443.72;;;35.60;33.63
18795;BME280;29610;49.022;12.114;2023-06-14T11:12:13;97451.16;;;35.08;33.39
18795;BME280;29610;49.022;12.114;2023-06-14T11:14:46;97443.50;;;34.65;34.25
18795;BME280;29610;49.022;12.114;2023-06-14T11:17:16;97446.22;;;32.52;34.42
18795;BME280;29610;49.022;12.114;2023-06-14T11:19:48;97451.06;;;31.71;36.66
18795;BME280;29610;49.022;12.114;2023-06-14T11:22:16;97452.81;;;29.59;39.15
18795;BME280;29610;49.022;12.114;2023-06-14T11:24:46;97455.31;;;28.82;41.50
18795;BME280;29610;49.022;12.114;2023-06-14T11:27:15;97451.88;;;28.78;40.61
18795;BME280;29610;49.022;12.114;2023-06-14T11:29:48;97451.84;;;26.12;46.33
18795;BME280;29610;49.022;12.114;2023-06-14T11:32:19;97464.00;;;24.87;50.94
18795;BME280;29610;49.022;12.114;2023-06-14T11:34:48;97463.44;;;26.11;51.61
18795;BME280;29610;49.022;12.114;2023-06-14T11:37:18;97458.25;;;28.37;44.86
18795;BME280;29610;49.022;12.114;2023-06-14T11:39:47;97445.25;;;29.81;41.58
18795;BME280;29610;49.022;12.114;2023-06-14T11:42:15;97455.31;;;28.57;42.33
18795;BME280;29610;49.022;12.114;2023-06-14T11:44:46;97457.31;;;26.90;45.38
18795;BME280;29610;49.022;12.114;2023-06-14T11:47:15;97440.28;;;27.81;44.51
18795;BME280;29610;49.022;12.114;2023-06-14T11:49:46;97451.75;;;27.06;46.04
18795;BME280;29610;49.022;12.114;2023-06-14T11:52:15;97453.72;;;26.19;47.81
18795;BME280;29610;49.022;12.114;2023-06-14T11:54:47;97462.22;;;25.23;47.58
18795;BME280;29610;49.022;12.114;2023-06-14T11:57:18;97457.50;;;24.10;52.08
18795;BME280;29610;49.022;12.114;2023-06-14T11:59:49;97458.47;;;24.26;51.87
18795;BME280;29610;49.022;12.114;2023-06-14T12:02:19;97447.44;;;24.19;53.05
18795;BME280;29610;49.022;12.114;2023-06-14T12:04:53;97457.78;;;24.19;55.69
18795;BME280;29610;49.022;12.114;2023-06-14T12:07:22;97455.19;;;24.92;53.08
18795;BME280;29610;49.022;12.114;2023-06-14T12:10:09;97446.38;;;25.20;52.01
18795;BME280;29610;49.022;12.114;2023-06-14T12:12:39;97448.09;;;25.60;50.99
18795;BME280;29610;49.022;12.114;2023-06-14T12:15:10;97450.34;;;24.96;48.92
18795;BME280;29610;49.022;12.114;2023-06-14T12:17:42;97457.88;;;24.42;50.65
18795;BME280;29610;49.022;12.114;2023-06-14T12:20:14;97451.38;;;24.52;50.61
18795;BME280;29610;49.022;12.114;2023-06-14T12:22:54;97455.84;;;24.46;51.20
18795;BME280;29610;49.022;12.114;2023-06-14T12:25:27;97450.47;;;24.32;52.93
18795;BME280;29610;49.022;12.114;2023-06-14T12:27:58;97465.91;;;24.63;57.69
18795;BME280;29610;49.022;12.114;2023-06-14T12:30:28;97455.41;;;24.78;55.44
18795;BME280;29610;49.022;12.114;2023-06-14T12:32:57;97451.22;;;25.16;54.24
18795;BME280;29610;49.022;12.114;2023-06-14T12:35:28;97457.88;;;25.22;54.19
18795;BME280;29610;49.022;12.114;2023-06-14T12:37:57;97448.72;;;25.67;52.98
18795;BME280;29610;49.022;12.114;2023-06-14T12:40:26;97444.03;;;26.07;52.71
18795;BME280;29610;49.022;12.114;2023-06-14T12:42:55;97456.31;;;25.86;53.20
18795;BME280;29610;49.022;12.114;2023-06-14T12:45:24;97445.19;;;25.44;52.69
18795;BME280;29610;49.022;12.114;2023-06-14T12:47:53;97437.25;;;26.08;49.98
18795;BME280;29610;49.022;12.114;2023-06-14T12:50:23;97450.50;;;26.20;49.78
18795;BME280;29610;49.022;12.114;2023-06-14T12:52:55;97447.03;;;26.71;48.24
18795;BME280;29610;49.022;12.114;2023-06-14T12:55:23;97451.09;;;26.47;46.83
18795;BME280;29610;49.022;12.114;2023-06-14T12:57:52;97451.31;;;26.56;45.90
18795;BME280;29610;49.022;12.114;2023-06-14T13:00:21;97448.63;;;25.28;47.51
18795;BME280;29610;49.022;12.114;2023-06-14T13:02:50;97450.16;;;25.75;45.97
18795;BME280;29610;49.022;12.114;2023-06-14T13:05:19;97452.72;;;25.89;44.56